sensor_id;sensor_type;location;lat;lon;timestamp;pressure;altitude;pressure_sealevel;temperature;humidity
54936;BME280;40838;50.676;7.838;2024-01-15T00:00:58;96993.88;;;1.11;100.00
54936;BME280;40838;50.676;7.838;2024-01-15T00:03:27;96996.69;;;1.63;100.00
54936;BME280;40838;50.676;7.838;2024-01-15T00:05:54;96996.69;;;1.51;100.00
54936;BME280;40838;50.676;7.838;2024-01-15T00:08:20;96987.56;;;1.30;100.00
54936;BME280;40838;50.676;7.838;2024-01-15T00:10:47;96985.06;;;1.35;100.00
54936;BME280;40838;50.676;7.838;2024-01-15T00:13:14;96973.34;;;1.03;100.00
54936;BME280;40838;50.676;7.838;2024-01-15T00:15:41;96970.28;;;1.06;100.00
54936;BME280;40838;50.676;7.838;2024-01-15T00:18:07;96974.84;;;0.32;100.00
54936;BME280;40838;50.676;7.838;2024-01-15T00:20:36;96965.19;;;0.99;100.00
54936;BME280;40838;50.676;7.838;2024-01-15T00:23:03;96955.53;;;1.00;100.00
54936;BME280;40838;50.676;7.838;2024-01-15T00:25:29;96958.13;;;0.88;100.00
54936;BME280;40838;50.676;7.838;2024-01-15T00:27:56;96949.44;;;1.06;100.00
54936;BME280;40838;50.676;7.838;2024-01-15T00:30:23;96951.66;;;0.60;100.00
54936;BME280;40838;50.676;7.838;2024-01-15T00:32:50;96945.94;;;1.12;100.00
54936;BME280;40838;50.676;7.838;2024-01-15T00:35:16;96944.41;;;1.58;100.00
54936;BME280;40838;50.676;7.838;2024-01-15T00:37:44;96934.94;;;1.22;100.00
54936;BME280;40838;50.676;7.838;2024-01-15T00:40:11;96941.09;;;1.62;100.00
54936;BME280;40838;50.676;7.838;2024-01-15T00:42:38;96937.56;;;1.22;100.00
54936;BME280;40838;50.676;7.838;2024-01-15T00:45:05;96936.00;;;1.68;100.00
54936;BME280;40838;50.676;7.838;2024-01-15T00:47:33;96936.47;;;1.53;100.00
54936;BME280;40838;50.676;7.838;2024-01-15T00:50:00;96934.88;;;1.52;100.00
54936;BME280;40838;50.676;7.838;2024-01-15T00:52:26;96927.72;;;1.35;100.00
54936;BME280;40838;50.676;7.838;2024-01-15T00:54:54;96925.91;;;1.48;100.00
54936;BME280;40838;50.676;7.838;2024-01-15T00:57:21;96920.59;;;1.66;100.00
54936;BME280;40838;50.676;7.838;2024-01-15T00:59:48;96925.44;;;1.39;100.00
54936;BME280;40838;50.676;7.838;2024-01-15T01:02:14;96912.66;;;1.37;100.00
54936;BME280;40838;50.676;7.838;2024-01-15T01:04:41;96915.25;;;1.37;100.00
54936;BME280;40838;50.676;7.838;2024-01-15T01:07:08;96909.00;;;1.74;100.00
54936;BME280;40838;50.676;7.838;2024-01-15T01:09:35;96914.03;;;1.52;100.00
54936;BME280;40838;50.676;7.838;2024-01-15T01:12:03;96914.81;;;1.64;100.00
54936;BME280;40838;50.676;7.838;2024-01-15T01:14:31;96911.63;;;1.38;100.00
54936;BME280;40838;50.676;7.838;2024-01-15T01:16:58;96911.75;;;1.55;100.00
54936;BME280;40838;50.676;7.838;2024-01-15T01:19:25;96908.56;;;1.65;100.00
54936;BME280;40838;50.676;7.838;2024-01-15T01:21:51;96910.94;;;1.78;100.00
54936;BME280;40838;50.676;7.838;2024-01-15T01:24:18;96907.44;;;1.37;100.00
54936;BME280;40838;50.676;7.838;2024-01-15T01:26:45;96905.59;;;1.03;100.00
54936;BME280;40838;50.676;7.838;2024-01-15T01:29:13;96916.69;;;0.68;100.00
54936;BME280;40838;50.676;7.838;2024-01-15T01:31:42;96915.47;;;0.70;100.00
54936;BME280;40838;50.676;7.838;2024-01-15T01:34:09;96918.66;;;0.72;100.00
54936;BME280;40838;50.676;7.838;2024-01-15T01:36:36;96924.88;;;1.13;100.00
54936;BME280;40838;50.676;7.838;2024-01-15T01:39:03;96922.25;;;0.71;100.00
54936;BME280;40838;50.676;7.838;2024-01-15T01:41:31;96925.38;;;0.92;100.00
54936;BME280;40838;50.676;7.838;2024-01-15T01:43:59;96930.81;;;0.90;100.00
54936;BME280;40838;50.676;7.838;2024-01-15T01:46:27;96930.06;;;1.02;100.00
54936;BME280;40838;50.676;7.838;2024-01-15T01:48:55;96924.41;;;1.16;100.00
54936;BME280;40838;50.676;7.838;2024-01-15T01:51:23;96923.19;;;1.19;100.00
54936;BME280;40838;50.676;7.838;2024-01-15T01:53:51;96913.56;;;1.31;100.00
54936;BME280;40838;50.676;7.838;2024-01-15T01:56:18;96916.63;;;1.52;100.00
54936;BME280;40838;50.676;7.838;2024-01-15T01:58:45;96912.06;;;1.82;100.00
54936;BME280;40838;50.676;7.838;2024-01-15T02:01:14;96914.34;;;1.79;100.00
54936;BME280;40838;50.676;7.838;2024-01-15T02:03:43;96912.63;;;1.96;100.00
54936;BME280;40838;50.676;7.838;2024-01-15T02:06:10;96922.50;;;1.59;100.00
54936;BME280;40838;50.676;7.838;2024-01-15T02:08:37;96920.94;;;1.34;100.00
54936;BME280;40838;50.676;7.838;2024-01-15T02:11:04;96923.53;;;1.46;100.00
54936;BME280;40838;50.676;7.838;2024-01-15T02:13:31;96920.16;;;0.92;100.00
54936;BME280;40838;50.676;7.838;2024-01-15T02:15:58;96925.53;;;1.09;100.00
54936;BME280;40838;50.676;7.838;2024-01-15T02:18:24;96922.59;;;1.05;100.00
54936;BME280;40838;50.676;7.838;2024-01-15T02:20:52;96922.97;;;1.32;100.00
54936;BME280;40838;50.676;7.838;2024-01-15T02:23:20;96914.56;;;1.30;100.00
54936;BME280;40838;50.676;7.838;2024-01-15T02:25:49;96918.88;;;0.71;100.00
54936;BME280;40838;50.676;7.838;2024-01-15T02:28:17;96920.16;;;0.50;100.00
54936;BME280;40838;50.676;7.838;2024-01-15T02:30:46;96917.38;;;1.05;100.00
54936;BME280;40838;50.676;7.838;2024-01-15T02:33:13;96923.63;;;1.04;100.00
54936;BME280;40838;50.676;7.838;2024-01-15T02:35:40;96918.19;;;0.64;100.00
54936;BME280;40838;50.676;7.838;2024-01-15T02:38:07;96920.22;;;1.27;100.00
54936;BME280;40838;50.676;7.838;2024-01-15T02:40:36;96917.25;;;1.12;100.00
54936;BME280;40838;50.676;7.838;2024-01-15T02:43:03;96919.00;;;0.76;100.00
54936;BME280;40838;50.676;7.838;2024-01-15T02:45:30;96917.00;;;0.60;100.00
54936;BME280;40838;50.676;7.838;2024-01-15T02:47:57;96922.03;;;1.15;100.00
54936;BME280;40838;50.676;7.838;2024-01-15T02:50:23;96917.00;;;0.90;100.00
54936;BME280;40838;50.676;7.838;2024-01-15T02:52:50;96921.72;;;1.47;100.00
54936;BME280;40838;50.676;7.838;2024-01-15T02:55:17;96921.38;;;1.55;100.00
54936;BME280;40838;50.676;7.838;2024-01-15T02:57:45;96913.31;;;1.68;100.00
54936;BME280;40838;50.676;7.838;2024-01-15T03:00:13;96918.66;;;1.61;100.00
54936;BME280;40838;50.676;7.838;2024-01-15T03:02:40;96922.16;;;1.91;100.00
54936;BME280;40838;50.676;7.838;2024-01-15T03:05:08;96932.50;;;1.62;100.00
54936;BME280;40838;50.676;7.838;2024-01-15T03:07:35;96918.31;;;1.81;100.00
54936;BME280;40838;50.676;7.838;2024-01-15T03:10:03;96921.59;;;1.89;100.00
54936;BME280;40838;50.676;7.838;2024-01-15T03:12:30;96914.56;;;1.66;100.00
54936;BME280;40838;50.676;7.838;2024-01-15T03:14:58;96908.97;;;1.97;100.00
54936;BME280;40838;50.676;7.838;2024-01-15T03:17:25;96917.63;;;1.39;100.00
54936;BME280;40838;50.676;7.838;2024-01-15T03:19:52;96913.91;;;1.47;100.00
54936;BME280;40838;50.676;7.838;2024-01-15T03:22:19;96918.78;;;1.43;100.00
54936;BME280;40838;50.676;7.838;2024-01-15T03:24:45;96917.53;;;1.46;100.00
54936;BME280;40838;50.676;7.838;2024-01-15T03:27:12;96912.75;;;1.90;100.00
54936;BME280;40838;50.676;7.838;2024-01-15T03:29:39;96908.34;;;1.78;100.00
54936;BME280;40838;50.676;7.838;2024-01-15T03:32:07;96911.53;;;1.57;100.00
54936;BME280;40838;50.676;7.838;2024-01-15T03:34:34;96901.63;;;1.82;100.00
54936;BME280;40838;50.676;7.838;2024-01-15T03:37:01;96903.78;;;1.85;100.00
54936;BME280;40838;50.676;7.838;2024-01-15T03:39:27;96904.34;;;1.88;100.00
54936;BME280;40838;50.676;7.838;2024-01-15T03:41:55;96906.41;;;1.62;100.00
54936;BME280;40838;50.676;7.838;2024-01-15T03:44:22;96899.38;;;1.62;100.00
54936;BME280;40838;50.676;7.838;2024-01-15T03:46:48;96903.66;;;1.92;100.00
54936;BME280;40838;50.676;7.838;2024-01-15T03:49:16;96905.16;;;2.28;100.00
54936;BME280;40838;50.676;7.838;2024-01-15T03:51:43;96899.47;;;1.91;100.00
54936;BME280;40838;50.676;7.838;2024-01-15T03:54:10;96907.16;;;1.86;100.00
54936;BME280;40838;50.676;7.838;2024-01-15T03:56:36;96905.13;;;1.88;100.00
54936;BME280;40838;50.676;7.838;2024-01-15T03:59:03;96902.78;;;1.75;100.00
54936;BME280;40838;50.676;7.838;2024-01-15T04:01:30;96898.59;;;1.27;100.00
54936;BME280;40838;50.676;7.838;2024-01-15T04:03:56;96897.91;;;1.78;100.00
54936;BME280;40838;50.676;7.838;2024-01-15T04:06:24;96894.84;;;1.34;100.00
54936;BME280;40838;50.676;7.838;2024-01-15T04:08:51;96900.41;;;1.38;100.00
54936;BME280;40838;50.676;7.838;2024-01-15T04:11:20;96902.88;;;1.45;100.00
54936;BME280;40838;50.676;7.838;2024-01-15T04:13:47;96898.34;;;1.75;100.00
54936;BME280;40838;50.676;7.838;2024-01-15T04:16:14;96889.19;;;1.61;100.00
54936;BME280;40838;50.676;7.838;2024-01-15T04:18:41;96896.88;;;1.68;100.00
54936;BME280;40838;50.676;7.838;2024-01-15T04:21:08;96908.00;;;1.39;100.00
54936;BME280;40838;50.676;7.838;2024-01-15T04:23:36;96901.75;;;1.29;100.00
54936;BME280;40838;50.676;7.838;2024-01-15T04:26:03;96901.59;;;1.00;100.00
54936;BME280;40838;50.676;7.838;2024-01-15T04:28:29;96899.16;;;1.17;100.00
54936;BME280;40838;50.676;7.838;2024-01-15T04:30:56;96893.63;;;1.37;100.00
54936;BME280;40838;50.676;7.838;2024-01-15T04:33:23;96880.91;;;1.52;100.00
54936;BME280;40838;50.676;7.838;2024-01-15T04:35:50;96890.66;;;1.69;100.00
54936;BME280;40838;50.676;7.838;2024-01-15T04:38:16;96886.91;;;1.64;100.00
54936;BME280;40838;50.676;7.838;2024-01-15T04:40:44;96890.56;;;1.52;100.00
54936;BME280;40838;50.676;7.838;2024-01-15T04:43:11;96889.00;;;2.03;100.00
54936;BME280;40838;50.676;7.838;2024-01-15T04:45:38;96888.75;;;2.16;100.00
54936;BME280;40838;50.676;7.838;2024-01-15T04:48:04;96886.91;;;1.53;100.00
54936;BME280;40838;50.676;7.838;2024-01-15T04:50:31;96890.53;;;1.75;100.00
54936;BME280;40838;50.676;7.838;2024-01-15T04:52:58;96881.31;;;1.84;100.00
54936;BME280;40838;50.676;7.838;2024-01-15T04:55:25;96882.72;;;1.52;100.00
54936;BME280;40838;50.676;7.838;2024-01-15T04:57:53;96883.63;;;1.69;100.00
54936;BME280;40838;50.676;7.838;2024-01-15T05:00:22;96880.25;;;1.57;100.00
54936;BME280;40838;50.676;7.838;2024-01-15T05:02:48;96883.38;;;1.71;100.00
54936;BME280;40838;50.676;7.838;2024-01-15T05:05:15;96873.09;;;1.52;100.00
54936;BME280;40838;50.676;7.838;2024-01-15T05:07:42;96869.50;;;1.94;100.00
54936;BME280;40838;50.676;7.838;2024-01-15T05:10:08;96865.81;;;1.66;100.00
54936;BME280;40838;50.676;7.838;2024-01-15T05:12:34;96872.03;;;1.77;100.00
54936;BME280;40838;50.676;7.838;2024-01-15T05:15:03;96873.03;;;1.88;100.00
54936;BME280;40838;50.676;7.838;2024-01-15T05:17:30;96863.16;;;1.90;100.00
54936;BME280;40838;50.676;7.838;2024-01-15T05:19:57;96867.84;;;1.64;100.00
54936;BME280;40838;50.676;7.838;2024-01-15T05:22:24;96861.59;;;1.77;100.00
54936;BME280;40838;50.676;7.838;2024-01-15T05:24:51;96872.72;;;1.84;100.00
54936;BME280;40838;50.676;7.838;2024-01-15T05:27:17;96871.38;;;1.23;100.00
54936;BME280;40838;50.676;7.838;2024-01-15T05:29:44;96873.88;;;1.29;100.00
54936;BME280;40838;50.676;7.838;2024-01-15T05:32:12;96867.41;;;1.44;100.00
54936;BME280;40838;50.676;7.838;2024-01-15T05:34:39;96867.28;;;1.50;100.00
54936;BME280;40838;50.676;7.838;2024-01-15T05:37:05;96866.00;;;1.76;100.00
54936;BME280;40838;50.676;7.838;2024-01-15T05:39:32;96858.09;;;1.48;100.00
54936;BME280;40838;50.676;7.838;2024-01-15T05:41:59;96867.88;;;1.17;100.00
54936;BME280;40838;50.676;7.838;2024-01-15T05:44:26;96859.25;;;1.52;100.00
54936;BME280;40838;50.676;7.838;2024-01-15T05:46:53;96859.91;;;1.59;100.00
54936;BME280;40838;50.676;7.838;2024-01-15T05:49:21;96857.91;;;1.26;100.00
54936;BME280;40838;50.676;7.838;2024-01-15T05:51:48;96866.75;;;1.36;100.00
54936;BME280;40838;50.676;7.838;2024-01-15T05:54:15;96866.97;;;1.11;100.00
54936;BME280;40838;50.676;7.838;2024-01-15T05:56:42;96866.28;;;1.39;100.00
54936;BME280;40838;50.676;7.838;2024-01-15T05:59:08;96857.66;;;1.27;100.00
54936;BME280;40838;50.676;7.838;2024-01-15T06:01:35;96867.28;;;1.27;100.00
54936;BME280;40838;50.676;7.838;2024-01-15T06:04:02;96863.28;;;0.77;100.00
54936;BME280;40838;50.676;7.838;2024-01-15T06:06:30;96862.47;;;1.82;100.00
54936;BME280;40838;50.676;7.838;2024-01-15T06:08:57;96852.47;;;1.91;100.00
54936;BME280;40838;50.676;7.838;2024-01-15T06:11:29;96857.88;;;1.61;100.00
54936;BME280;40838;50.676;7.838;2024-01-15T06:13:56;96858.78;;;1.55;100.00
54936;BME280;40838;50.676;7.838;2024-01-15T06:16:23;96857.44;;;1.40;100.00
54936;BME280;40838;50.676;7.838;2024-01-15T06:18:50;96851.53;;;1.57;100.00
54936;BME280;40838;50.676;7.838;2024-01-15T06:21:17;96857.66;;;1.27;100.00
54936;BME280;40838;50.676;7.838;2024-01-15T06:23:45;96856.53;;;1.23;100.00
54936;BME280;40838;50.676;7.838;2024-01-15T06:26:12;96860.69;;;1.59;100.00
54936;BME280;40838;50.676;7.838;2024-01-15T06:28:38;96852.81;;;1.43;100.00
54936;BME280;40838;50.676;7.838;2024-01-15T06:31:06;96860.69;;;1.01;100.00
54936;BME280;40838;50.676;7.838;2024-01-15T06:33:33;96860.97;;;1.34;100.00
54936;BME280;40838;50.676;7.838;2024-01-15T06:36:00;96868.66;;;1.29;100.00
54936;BME280;40838;50.676;7.838;2024-01-15T06:38:26;96855.75;;;1.46;100.00
54936;BME280;40838;50.676;7.838;2024-01-15T06:40:54;96852.44;;;1.27;100.00
54936;BME280;40838;50.676;7.838;2024-01-15T06:43:21;96847.94;;;1.34;100.00
54936;BME280;40838;50.676;7.838;2024-01-15T06:45:48;96855.28;;;1.37;100.00
54936;BME280;40838;50.676;7.838;2024-01-15T06:48:15;96849.75;;;1.34;100.00
54936;BME280;40838;50.676;7.838;2024-01-15T06:50:42;96852.22;;;1.40;100.00
54936;BME280;40838;50.676;7.838;2024-01-15T06:53:08;96849.16;;;1.32;100.00
54936;BME280;40838;50.676;7.838;2024-01-15T06:55:35;96841.00;;;1.28;100.00
54936;BME280;40838;50.676;7.838;2024-01-15T06:58:03;96842.22;;;1.61;100.00
54936;BME280;40838;50.676;7.838;2024-01-15T07:00:30;96846.00;;;1.30;100.00
54936;BME280;40838;50.676;7.838;2024-01-15T07:02:57;96845.41;;;0.92;100.00
54936;BME280;40838;50.676;7.838;2024-01-15T07:05:23;96845.78;;;1.08;100.00
54936;BME280;40838;50.676;7.838;2024-01-15T07:07:50;96843.72;;;1.33;100.00
54936;BME280;40838;50.676;7.838;2024-01-15T07:10:17;96843.09;;;1.78;100.00
54936;BME280;40838;50.676;7.838;2024-01-15T07:12:44;96850.06;;;0.90;100.00
54936;BME280;40838;50.676;7.838;2024-01-15T07:15:12;96849.63;;;1.05;100.00
54936;BME280;40838;50.676;7.838;2024-01-15T07:17:39;96848.81;;;0.93;100.00
54936;BME280;40838;50.676;7.838;2024-01-15T07:20:07;96846.31;;;1.22;100.00
54936;BME280;40838;50.676;7.838;2024-01-15T07:22:35;96842.88;;;1.68;100.00
54936;BME280;40838;50.676;7.838;2024-01-15T07:25:02;96835.78;;;1.52;100.00
54936;BME280;40838;50.676;7.838;2024-01-15T07:27:30;96828.44;;;1.25;100.00
54936;BME280;40838;50.676;7.838;2024-01-15T07:29:56;96830.31;;;1.53;100.00
54936;BME280;40838;50.676;7.838;2024-01-15T07:32:24;96833.19;;;1.52;100.00
54936;BME280;40838;50.676;7.838;2024-01-15T07:34:51;96829.31;;;1.54;100.00
54936;BME280;40838;50.676;7.838;2024-01-15T07:37:18;96838.03;;;1.72;100.00
54936;BME280;40838;50.676;7.838;2024-01-15T07:39:45;96827.50;;;1.43;100.00
54936;BME280;40838;50.676;7.838;2024-01-15T07:42:12;96830.63;;;1.80;100.00
54936;BME280;40838;50.676;7.838;2024-01-15T07:44:38;96836.91;;;1.44;100.00
54936;BME280;40838;50.676;7.838;2024-01-15T07:47:05;96832.03;;;2.00;100.00
54936;BME280;40838;50.676;7.838;2024-01-15T07:49:33;96829.88;;;1.97;100.00
54936;BME280;40838;50.676;7.838;2024-01-15T07:52:00;96837.91;;;1.67;100.00
54936;BME280;40838;50.676;7.838;2024-01-15T07:54:27;96839.75;;;1.54;100.00
54936;BME280;40838;50.676;7.838;2024-01-15T07:56:54;96839.94;;;1.64;100.00
54936;BME280;40838;50.676;7.838;2024-01-15T07:59:21;96833.34;;;1.74;100.00
54936;BME280;40838;50.676;7.838;2024-01-15T08:01:48;96831.25;;;1.12;100.00
54936;BME280;40838;50.676;7.838;2024-01-15T08:04:15;96832.41;;;1.16;100.00
54936;BME280;40838;50.676;7.838;2024-01-15T08:06:43;96832.94;;;1.30;100.00
54936;BME280;40838;50.676;7.838;2024-01-15T08:09:10;96836.81;;;1.27;100.00
54936;BME280;40838;50.676;7.838;2024-01-15T08:11:39;96829.56;;;1.29;100.00
54936;BME280;40838;50.676;7.838;2024-01-15T08:14:06;96833.66;;;1.37;100.00
54936;BME280;40838;50.676;7.838;2024-01-15T08:16:32;96830.28;;;1.77;100.00
54936;BME280;40838;50.676;7.838;2024-01-15T08:18:59;96830.91;;;1.44;100.00
54936;BME280;40838;50.676;7.838;2024-01-15T08:21:26;96825.31;;;1.75;100.00
54936;BME280;40838;50.676;7.838;2024-01-15T08:23:56;96827.63;;;1.13;100.00
54936;BME280;40838;50.676;7.838;2024-01-15T08:26:23;96832.63;;;1.26;100.00
54936;BME280;40838;50.676;7.838;2024-01-15T08:28:50;96825.88;;;1.66;100.00
54936;BME280;40838;50.676;7.838;2024-01-15T08:31:17;96829.34;;;0.95;100.00
54936;BME280;40838;50.676;7.838;2024-01-15T08:33:44;96830.81;;;1.27;100.00
54936;BME280;40838;50.676;7.838;2024-01-15T08:36:11;96836.00;;;1.38;100.00
54936;BME280;40838;50.676;7.838;2024-01-15T08:38:38;96830.09;;;1.55;100.00
54936;BME280;40838;50.676;7.838;2024-01-15T08:41:06;96819.81;;;1.48;100.00
54936;BME280;40838;50.676;7.838;2024-01-15T08:43:33;96827.50;;;1.55;100.00
54936;BME280;40838;50.676;7.838;2024-01-15T08:46:00;96827.84;;;1.99;100.00
54936;BME280;40838;50.676;7.838;2024-01-15T08:48:28;96831.25;;;1.47;100.00
54936;BME280;40838;50.676;7.838;2024-01-15T08:50:54;96823.28;;;1.54;100.00
54936;BME280;40838;50.676;7.838;2024-01-15T08:53:22;96830.66;;;1.69;100.00
54936;BME280;40838;50.676;7.838;2024-01-15T08:55:49;96831.34;;;1.52;100.00
54936;BME280;40838;50.676;7.838;2024-01-15T08:58:17;96841.00;;;0.93;100.00
54936;BME280;40838;50.676;7.838;2024-01-15T09:00:44;96833.88;;;1.12;100.00
54936;BME280;40838;50.676;7.838;2024-01-15T09:03:11;96833.63;;;1.49;100.00
54936;BME280;40838;50.676;7.838;2024-01-15T09:05:37;96837.69;;;1.45;100.00
54936;BME280;40838;50.676;7.838;2024-01-15T09:08:06;96840.59;;;1.83;100.00
54936;BME280;40838;50.676;7.838;2024-01-15T09:10:32;96849.16;;;1.44;100.00
54936;BME280;40838;50.676;7.838;2024-01-15T09:12:59;96843.38;;;1.18;100.00
54936;BME280;40838;50.676;7.838;2024-01-15T09:15:28;96840.22;;;1.16;100.00
54936;BME280;40838;50.676;7.838;2024-01-15T09:17:54;96839.78;;;1.19;100.00
54936;BME280;40838;50.676;7.838;2024-01-15T09:20:24;96847.44;;;1.61;100.00
54936;BME280;40838;50.676;7.838;2024-01-15T09:22:51;96846.88;;;1.47;100.00
54936;BME280;40838;50.676;7.838;2024-01-15T09:25:18;96850.84;;;1.50;100.00
54936;BME280;40838;50.676;7.838;2024-01-15T09:27:47;96841.22;;;1.38;100.00
54936;BME280;40838;50.676;7.838;2024-01-15T09:30:16;96847.22;;;1.39;100.00
54936;BME280;40838;50.676;7.838;2024-01-15T09:32:44;96844.97;;;0.95;100.00
54936;BME280;40838;50.676;7.838;2024-01-15T09:35:11;96844.75;;;1.32;100.00
54936;BME280;40838;50.676;7.838;2024-01-15T09:37:39;96840.69;;;1.36;100.00
54936;BME280;40838;50.676;7.838;2024-01-15T09:40:08;96841.81;;;1.05;100.00
54936;BME280;40838;50.676;7.838;2024-01-15T09:42:35;96836.00;;;1.27;100.00
54936;BME280;40838;50.676;7.838;2024-01-15T09:45:02;96841.00;;;1.05;100.00
54936;BME280;40838;50.676;7.838;2024-01-15T09:47:30;96837.03;;;1.49;100.00
54936;BME280;40838;50.676;7.838;2024-01-15T09:49:58;96841.56;;;1.30;100.00
54936;BME280;40838;50.676;7.838;2024-01-15T09:52:25;96854.72;;;1.47;100.00
54936;BME280;40838;50.676;7.838;2024-01-15T09:54:52;96856.72;;;0.98;100.00
54936;BME280;40838;50.676;7.838;2024-01-15T09:57:19;96846.78;;;1.07;100.00
54936;BME280;40838;50.676;7.838;2024-01-15T09:59:47;96839.75;;;1.54;100.00
54936;BME280;40838;50.676;7.838;2024-01-15T10:02:14;96839.97;;;1.06;100.00
54936;BME280;40838;50.676;7.838;2024-01-15T10:04:44;96839.41;;;1.39;100.00
54936;BME280;40838;50.676;7.838;2024-01-15T10:07:15;96825.34;;;1.63;100.00
54936;BME280;40838;50.676;7.838;2024-01-15T10:09:42;96823.19;;;1.49;100.00
54936;BME280;40838;50.676;7.838;2024-01-15T10:12:10;96823.03;;;1.79;100.00
54936;BME280;40838;50.676;7.838;2024-01-15T10:14:37;96813.44;;;1.56;100.00
54936;BME280;40838;50.676;7.838;2024-01-15T10:17:12;96804.13;;;2.00;100.00
54936;BME280;40838;50.676;7.838;2024-01-15T10:19:41;96804.94;;;2.18;100.00
54936;BME280;40838;50.676;7.838;2024-01-15T10:22:08;96801.97;;;2.26;100.00
54936;BME280;40838;50.676;7.838;2024-01-15T10:24:37;96806.50;;;1.61;100.00
54936;BME280;40838;50.676;7.838;2024-01-15T10:27:07;96802.66;;;1.64;100.00
54936;BME280;40838;50.676;7.838;2024-01-15T10:29:35;96786.72;;;1.89;100.00
54936;BME280;40838;50.676;7.838;2024-01-15T10:32:02;96792.84;;;1.71;100.00
54936;BME280;40838;50.676;7.838;2024-01-15T10:34:30;96792.16;;;1.35;100.00
54936;BME280;40838;50.676;7.838;2024-01-15T10:36:57;96789.88;;;1.39;100.00
54936;BME280;40838;50.676;7.838;2024-01-15T10:39:24;96790.72;;;1.68;100.00
54936;BME280;40838;50.676;7.838;2024-01-15T10:41:52;96794.09;;;1.05;100.00
54936;BME280;40838;50.676;7.838;2024-01-15T10:44:19;96795.56;;;1.01;100.00
54936;BME280;40838;50.676;7.838;2024-01-15T10:46:46;96799.75;;;1.37;100.00
54936;BME280;40838;50.676;7.838;2024-01-15T10:49:13;96803.16;;;0.90;100.00
54936;BME280;40838;50.676;7.838;2024-01-15T10:51:41;96810.47;;;0.58;100.00
54936;BME280;40838;50.676;7.838;2024-01-15T10:54:09;96789.59;;;2.04;100.00
54936;BME280;40838;50.676;7.838;2024-01-15T10:56:38;96793.00;;;2.50;100.00
54936;BME280;40838;50.676;7.838;2024-01-15T10:59:08;96791.53;;;1.97;100.00
54936;BME280;40838;50.676;7.838;2024-01-15T11:01:36;96788.75;;;1.35;100.00
54936;BME280;40838;50.676;7.838;2024-01-15T11:04:04;96790.69;;;2.37;100.00
54936;BME280;40838;50.676;7.838;2024-01-15T11:06:41;96786.97;;;2.33;100.00
54936;BME280;40838;50.676;7.838;2024-01-15T11:09:09;96792.69;;;2.18;100.00
54936;BME280;40838;50.676;7.838;2024-01-15T11:11:36;96788.69;;;1.70;100.00
54936;BME280;40838;50.676;7.838;2024-01-15T11:14:08;96791.53;;;2.26;100.00
54936;BME280;40838;50.676;7.838;2024-01-15T11:16:54;96790.31;;;2.79;100.00
54936;BME280;40838;50.676;7.838;2024-01-15T11:19:22;96791.25;;;2.56;100.00
54936;BME280;40838;50.676;7.838;2024-01-15T11:21:51;96789.50;;;2.62;100.00
54936;BME280;40838;50.676;7.838;2024-01-15T11:24:37;96803.69;;;2.66;100.00
54936;BME280;40838;50.676;7.838;2024-01-15T11:27:05;96801.41;;;2.69;100.00
54936;BME280;40838;50.676;7.838;2024-01-15T11:29:35;96800.94;;;2.89;100.00
54936;BME280;40838;50.676;7.838;2024-01-15T11:32:03;96802.09;;;2.65;100.00
54936;BME280;40838;50.676;7.838;2024-01-15T11:34:56;96799.19;;;2.95;100.00
54936;BME280;40838;50.676;7.838;2024-01-15T11:37:27;96808.47;;;2.86;100.00
54936;BME280;40838;50.676;7.838;2024-01-15T11:39:54;96799.00;;;2.34;100.00
54936;BME280;40838;50.676;7.838;2024-01-15T11:42:21;96794.75;;;2.45;100.00
54936;BME280;40838;50.676;7.838;2024-01-15T11:44:50;96803.44;;;2.67;100.00
54936;BME280;40838;50.676;7.838;2024-01-15T11:50:22;96800.06;;;3.00;100.00
54936;BME280;40838;50.676;7.838;2024-01-15T11:52:57;96804.41;;;2.95;100.00
54936;BME280;40838;50.676;7.838;2024-01-15T11:55:27;96815.13;;;2.31;100.00
54936;BME280;40838;50.676;7.838;2024-01-15T11:57:55;96809.78;;;3.05;100.00
54936;BME280;40838;50.676;7.838;2024-01-15T12:00:25;96806.38;;;3.43;100.00
54936;BME280;40838;50.676;7.838;2024-01-15T12:02:52;96811.06;;;2.69;100.00
54936;BME280;40838;50.676;7.838;2024-01-15T12:05:22;96820.94;;;3.17;100.00
54936;BME280;40838;50.676;7.838;2024-01-15T12:07:49;96828.41;;;2.92;100.00
54936;BME280;40838;50.676;7.838;2024-01-15T12:10:17;96828.78;;;3.17;100.00
54936;BME280;40838;50.676;7.838;2024-01-15T12:12:57;96830.81;;;3.32;100.00
54936;BME280;40838;50.676;7.838;2024-01-15T12:15:27;96829.06;;;2.37;100.00
54936;BME280;40838;50.676;7.838;2024-01-15T12:17:55;96831.31;;;2.78;100.00
54936;BME280;40838;50.676;7.838;2024-01-15T12:20:23;96827.59;;;2.58;100.00
54936;BME280;40838;50.676;7.838;2024-01-15T12:22:50;96830.53;;;2.78;100.00
54936;BME280;40838;50.676;7.838;2024-01-15T12:25:17;96828.72;;;2.78;100.00
54936;BME280;40838;50.676;7.838;2024-01-15T12:27:44;96831.78;;;2.59;100.00
54936;BME280;40838;50.676;7.838;2024-01-15T12:30:11;96836.75;;;2.15;100.00
54936;BME280;40838;50.676;7.838;2024-01-15T12:32:41;96833.38;;;2.60;100.00
54936;BME280;40838;50.676;7.838;2024-01-15T12:35:08;96837.00;;;2.13;100.00
54936;BME280;40838;50.676;7.838;2024-01-15T12:37:36;96833.84;;;2.57;100.00
54936;BME280;40838;50.676;7.838;2024-01-15T12:40:04;96827.06;;;3.06;100.00
54936;BME280;40838;50.676;7.838;2024-01-15T12:42:32;96838.44;;;3.34;100.00
54936;BME280;40838;50.676;7.838;2024-01-15T12:45:00;96834.97;;;2.77;100.00
54936;BME280;40838;50.676;7.838;2024-01-15T12:47:27;96836.47;;;2.73;100.00
54936;BME280;40838;50.676;7.838;2024-01-15T12:49:55;96829.22;;;3.70;100.00
54936;BME280;40838;50.676;7.838;2024-01-15T12:52:26;96836.53;;;3.29;100.00
54936;BME280;40838;50.676;7.838;2024-01-15T12:54:53;96842.16;;;2.70;100.00
54936;BME280;40838;50.676;7.838;2024-01-15T12:57:20;96840.94;;;3.45;100.00
54936;BME280;40838;50.676;7.838;2024-01-15T12:59:47;96844.09;;;2.92;100.00
54936;BME280;40838;50.676;7.838;2024-01-15T13:02:14;96848.34;;;3.32;100.00
54936;BME280;40838;50.676;7.838;2024-01-15T13:04:41;96855.09;;;3.28;100.00